createdAt,value
2018-07-23T00:00:47.651Z,17.99
2018-07-23T00:01:47.839Z,17.96
2018-07-23T00:02:48.026Z,17.93
2018-07-23T00:03:48.215Z,17.91
2018-07-23T00:04:48.402Z,17.91
2018-07-23T00:05:48.591Z,17.90
2018-07-23T00:06:48.779Z,17.93
2018-07-23T00:07:48.967Z,17.96
2018-07-23T00:08:49.156Z,17.93
2018-07-23T00:09:49.341Z,18.01
2018-07-23T00:10:49.523Z,17.99
2018-07-23T00:11:49.706Z,17.96
2018-07-23T00:12:49.899Z,17.93
2018-07-23T00:13:50.083Z,17.96
2018-07-23T00:14:50.267Z,17.97
2018-07-23T00:15:50.455Z,18.01
2018-07-23T00:16:50.641Z,18.05
2018-07-23T00:17:50.829Z,17.96
2018-07-23T00:18:51.008Z,17.90
2018-07-23T00:19:51.203Z,17.97
2018-07-23T00:20:51.384Z,17.90
2018-07-23T00:21:51.574Z,18.02
2018-07-23T00:22:51.760Z,17.87
2018-07-23T00:23:51.940Z,17.87
2018-07-23T00:24:52.122Z,17.88
2018-07-23T00:25:52.308Z,17.93
2018-07-23T00:26:52.494Z,17.94
2018-07-23T00:27:52.679Z,17.86
2018-07-23T00:28:52.864Z,17.84
2018-07-23T00:29:53.054Z,17.83
2018-07-23T00:30:53.240Z,17.79
2018-07-23T00:31:53.434Z,17.83
2018-07-23T00:32:53.619Z,17.78
2018-07-23T00:33:53.818Z,17.78
2018-07-23T00:34:54.005Z,17.72
2018-07-23T00:35:54.191Z,17.86
2018-07-23T00:36:54.378Z,17.81
2018-07-23T00:37:54.563Z,17.81
2018-07-23T00:38:54.749Z,17.86
2018-07-23T00:39:54.938Z,17.84
2018-07-23T00:40:55.121Z,17.78
2018-07-23T00:41:55.302Z,17.78
2018-07-23T00:42:55.487Z,17.78
2018-07-23T00:43:55.674Z,17.76
2018-07-23T00:44:55.860Z,17.79
2018-07-23T00:45:56.046Z,17.73
2018-07-23T00:46:56.236Z,17.72
2018-07-23T00:47:56.421Z,17.65
2018-07-23T00:48:56.604Z,17.65
2018-07-23T00:49:56.785Z,17.59
2018-07-23T00:50:56.959Z,17.63
2018-07-23T00:51:57.176Z,17.50
2018-07-23T00:52:57.343Z,17.56
2018-07-23T00:53:57.550Z,17.56
2018-07-23T00:54:57.704Z,17.63
2018-07-23T00:55:57.887Z,17.50
2018-07-23T00:56:58.090Z,17.38
2018-07-23T00:57:58.253Z,17.49
2018-07-23T00:58:58.437Z,17.54
2018-07-23T00:59:58.614Z,17.47
2018-07-23T01:00:58.783Z,17.41
2018-07-23T01:01:58.959Z,17.43
2018-07-23T01:02:59.167Z,17.49
2018-07-23T01:03:59.349Z,17.45
2018-07-23T01:04:59.571Z,17.49
2018-07-23T01:05:59.727Z,17.47
2018-07-23T01:06:59.942Z,17.49
2018-07-23T01:08:00.090Z,17.43
2018-07-23T01:09:00.283Z,17.46
2018-07-23T01:10:00.466Z,17.52
2018-07-23T01:11:00.654Z,17.52
2018-07-23T01:12:00.844Z,17.45
2018-07-23T01:13:01.034Z,17.53
2018-07-23T01:14:01.220Z,17.50
2018-07-23T01:15:01.415Z,17.47
2018-07-23T01:16:01.577Z,17.46
2018-07-23T01:17:01.777Z,17.47
2018-07-23T01:18:01.959Z,17.46
2018-07-23T01:19:02.138Z,17.45
2018-07-23T01:20:02.320Z,17.45
2018-07-23T01:21:02.510Z,17.45
2018-07-23T01:22:02.692Z,17.37
2018-07-23T01:23:02.886Z,17.45
2018-07-23T01:24:03.037Z,17.41
2018-07-23T01:25:03.246Z,17.37
2018-07-23T01:26:03.444Z,17.27
2018-07-23T01:27:03.628Z,17.31
2018-07-23T01:28:03.817Z,17.30
2018-07-23T01:29:03.999Z,17.30
2018-07-23T01:30:04.183Z,17.20
2018-07-23T01:31:04.402Z,17.27
2018-07-23T01:32:04.604Z,17.24
2018-07-23T01:33:04.802Z,17.24
2018-07-23T01:34:04.986Z,17.19
2018-07-23T01:35:05.163Z,17.19
2018-07-23T01:36:05.353Z,17.19
2018-07-23T01:37:05.523Z,17.07
2018-07-23T01:38:05.709Z,17.09
2018-07-23T01:39:05.891Z,17.06
2018-07-23T01:40:06.186Z,17.04
2018-07-23T01:41:06.245Z,17.01
2018-07-23T01:42:06.433Z,17.12
2018-07-23T01:43:06.618Z,16.98
2018-07-23T01:44:06.805Z,16.94
2018-07-23T01:45:07.012Z,17.01
2018-07-23T01:46:07.202Z,16.97
2018-07-23T01:47:07.389Z,16.91
2018-07-23T01:48:07.591Z,16.94
2018-07-23T01:49:07.760Z,17.01
2018-07-23T01:50:07.947Z,16.98
2018-07-23T01:51:08.122Z,17.02
2018-07-23T01:52:08.301Z,16.95
2018-07-23T01:53:08.480Z,16.97
2018-07-23T01:54:08.671Z,16.92
2018-07-23T01:55:08.839Z,16.92
2018-07-23T01:56:09.660Z,16.92
2018-07-23T01:57:09.174Z,16.90
2018-07-23T01:58:09.380Z,16.91
2018-07-23T01:59:09.527Z,16.87
2018-07-23T02:00:09.718Z,16.95
2018-07-23T02:01:09.899Z,16.82
2018-07-23T02:02:10.081Z,16.87
2018-07-23T02:03:10.270Z,16.84
2018-07-23T02:04:10.456Z,16.72
2018-07-23T02:05:10.643Z,16.65
2018-07-23T02:06:10.827Z,16.58
2018-07-23T02:07:11.008Z,16.67
2018-07-23T02:08:11.199Z,16.58
2018-07-23T02:09:11.397Z,16.70
2018-07-23T02:10:11.589Z,16.67
2018-07-23T02:11:11.750Z,16.59
2018-07-23T02:12:11.939Z,16.69
2018-07-23T02:13:12.123Z,16.61
2018-07-23T02:14:12.311Z,16.65
2018-07-23T02:15:12.508Z,16.65
2018-07-23T02:16:12.700Z,16.61
2018-07-23T02:17:12.860Z,16.67
2018-07-23T02:18:13.083Z,16.69
2018-07-23T02:19:13.229Z,16.62
2018-07-23T02:20:13.403Z,16.64
2018-07-23T02:21:13.595Z,16.65
2018-07-23T02:22:13.779Z,16.65
2018-07-23T02:23:13.964Z,16.64
2018-07-23T02:24:14.151Z,16.67
2018-07-23T02:25:14.351Z,16.61
2018-07-23T02:26:14.530Z,16.58
2018-07-23T02:27:14.705Z,16.58
2018-07-23T02:28:14.901Z,16.61
2018-07-23T02:29:15.090Z,16.69
2018-07-23T02:30:15.269Z,16.65
2018-07-23T02:31:15.472Z,16.55
2018-07-23T02:32:15.639Z,16.55
2018-07-23T02:33:15.854Z,16.54
2018-07-23T02:34:16.040Z,16.51
2018-07-23T02:35:16.224Z,16.39
2018-07-23T02:36:16.412Z,16.43
2018-07-23T02:37:16.595Z,16.51
2018-07-23T02:38:16.782Z,16.51
2018-07-23T02:39:16.976Z,16.51
2018-07-23T02:40:17.151Z,16.55
2018-07-23T02:41:17.346Z,16.51
2018-07-23T02:42:17.535Z,16.59
2018-07-23T02:43:17.739Z,16.52
2018-07-23T02:44:17.922Z,16.55
2018-07-23T02:45:18.107Z,16.51
2018-07-23T02:46:18.295Z,16.57
2018-07-23T02:47:18.476Z,16.51
2018-07-23T02:48:18.672Z,16.47
2018-07-23T02:49:18.856Z,16.46
2018-07-23T02:50:19.048Z,16.37
2018-07-23T02:51:19.258Z,16.49
2018-07-23T02:52:19.450Z,16.51
2018-07-23T02:53:19.634Z,16.37
2018-07-23T02:54:19.819Z,16.55
2018-07-23T02:55:20.002Z,16.47
2018-07-23T02:56:20.186Z,16.43
2018-07-23T02:57:20.375Z,16.40
2018-07-23T02:58:20.579Z,16.36
2018-07-23T02:59:20.733Z,16.36
2018-07-23T03:00:20.920Z,16.40
2018-07-23T03:01:21.104Z,16.34
2018-07-23T03:02:21.296Z,16.46
2018-07-23T03:03:21.484Z,16.37
2018-07-23T03:04:21.686Z,16.39
2018-07-23T03:05:21.861Z,16.43
2018-07-23T03:06:22.083Z,16.40
2018-07-23T03:07:22.254Z,16.32
2018-07-23T03:08:22.444Z,16.36
2018-07-23T03:09:22.648Z,16.39
2018-07-23T03:10:22.854Z,16.34
2018-07-23T03:11:23.016Z,16.32
2018-07-23T03:12:23.193Z,16.34
2018-07-23T03:13:23.361Z,16.36
2018-07-23T03:14:23.560Z,16.24
2018-07-23T03:15:23.732Z,16.17
2018-07-23T03:16:23.913Z,16.16
2018-07-23T03:17:24.116Z,16.16
2018-07-23T03:18:24.296Z,16.06
2018-07-23T03:19:24.484Z,15.99
2018-07-23T03:20:24.654Z,15.91
2018-07-23T03:21:24.863Z,15.90
2018-07-23T03:22:25.066Z,15.83
2018-07-23T03:23:25.216Z,15.87
2018-07-23T03:24:25.409Z,15.88
2018-07-23T03:25:25.599Z,15.85
2018-07-23T03:26:25.770Z,15.87
2018-07-23T03:27:25.970Z,15.83
2018-07-23T03:28:26.145Z,15.84
2018-07-23T03:29:26.329Z,15.81
2018-07-23T03:30:26.527Z,15.72
2018-07-23T03:31:26.689Z,15.84
2018-07-23T03:32:26.876Z,15.91
2018-07-23T03:33:27.061Z,15.91
2018-07-23T03:34:27.246Z,15.85
2018-07-23T03:35:27.432Z,15.95
2018-07-23T03:36:27.620Z,15.95
2018-07-23T03:37:27.805Z,15.90
2018-07-23T03:38:27.992Z,15.93
2018-07-23T03:39:28.171Z,15.99
2018-07-23T03:40:28.361Z,15.91
2018-07-23T03:41:28.550Z,15.93
2018-07-23T03:42:28.766Z,15.93
2018-07-23T03:43:28.899Z,15.95
2018-07-23T03:44:29.103Z,15.95
2018-07-23T03:45:29.281Z,15.95
2018-07-23T03:46:29.464Z,15.88
2018-07-23T03:47:29.648Z,15.98
2018-07-23T03:48:29.819Z,15.99
2018-07-23T03:49:30.022Z,16.00
2018-07-23T03:50:30.210Z,15.96
2018-07-23T03:51:30.408Z,16.05
2018-07-23T03:52:30.582Z,15.99
2018-07-23T03:53:30.761Z,16.08
2018-07-23T03:54:30.944Z,16.13
2018-07-23T03:55:31.133Z,16.18
2018-07-23T03:56:31.330Z,16.14
2018-07-23T03:57:31.491Z,16.25
2018-07-23T03:58:31.668Z,16.26
2018-07-23T03:59:31.861Z,16.22
2018-07-23T04:00:32.039Z,16.25
2018-07-23T04:01:32.221Z,16.32
2018-07-23T04:02:32.405Z,16.43
2018-07-23T04:03:32.648Z,16.34
2018-07-23T04:04:32.778Z,16.42
2018-07-23T04:05:32.956Z,16.37
2018-07-23T04:06:33.147Z,16.36
2018-07-23T04:07:33.352Z,16.40
2018-07-23T04:08:33.539Z,16.44
2018-07-23T04:09:33.742Z,16.59
2018-07-23T04:10:33.901Z,16.52
2018-07-23T04:11:34.087Z,16.62
2018-07-23T04:12:34.266Z,16.54
2018-07-23T04:13:34.466Z,16.54
2018-07-23T04:14:34.640Z,16.61
2018-07-23T04:15:34.844Z,16.59
2018-07-23T04:16:35.019Z,16.59
2018-07-23T04:17:35.279Z,16.65
2018-07-23T04:18:35.422Z,16.57
2018-07-23T04:19:35.596Z,16.57
2018-07-23T04:20:35.798Z,16.61
2018-07-23T04:21:35.979Z,16.62
2018-07-23T04:22:36.170Z,16.61
2018-07-23T04:23:36.355Z,16.62
2018-07-23T04:24:36.540Z,16.70
2018-07-23T04:25:36.720Z,16.72
2018-07-23T04:26:36.908Z,16.83
2018-07-23T04:27:37.112Z,16.74
2018-07-23T04:28:37.277Z,16.88
2018-07-23T04:29:37.459Z,17.01
2018-07-23T04:30:37.642Z,16.97
2018-07-23T04:31:37.826Z,17.01
2018-07-23T04:32:38.005Z,17.02
2018-07-23T04:33:38.193Z,17.10
2018-07-23T04:34:38.378Z,17.04
2018-07-23T04:35:38.565Z,17.06
2018-07-23T04:36:38.773Z,17.14
2018-07-23T04:37:38.964Z,17.16
2018-07-23T04:38:39.147Z,17.14
2018-07-23T04:39:39.326Z,17.14
2018-07-23T04:40:39.513Z,17.20
2018-07-23T04:41:39.700Z,17.24
2018-07-23T04:42:39.887Z,17.24
2018-07-23T04:43:40.072Z,17.19
2018-07-23T04:44:40.259Z,17.27
2018-07-23T04:45:40.437Z,17.41
2018-07-23T04:46:40.620Z,17.38
2018-07-23T04:47:40.822Z,17.50
2018-07-23T04:48:40.975Z,17.46
2018-07-23T04:49:41.156Z,17.45
2018-07-23T04:50:41.435Z,17.49
2018-07-23T04:51:41.539Z,17.52
2018-07-23T04:52:41.724Z,17.59
2018-07-23T04:53:41.904Z,17.56
2018-07-23T04:54:42.098Z,17.65
2018-07-23T04:55:42.297Z,17.75
2018-07-23T04:56:42.529Z,17.83
2018-07-23T04:57:42.641Z,18.02
2018-07-23T04:58:42.831Z,17.99
2018-07-23T04:59:43.019Z,18.12
2018-07-23T05:00:43.216Z,18.21
2018-07-23T05:01:43.376Z,18.23
2018-07-23T05:02:43.572Z,18.27
2018-07-23T05:03:43.765Z,18.33
2018-07-23T05:04:43.953Z,18.42
2018-07-23T05:05:44.153Z,18.54
2018-07-23T05:06:44.345Z,18.54
2018-07-23T05:07:44.531Z,18.58
2018-07-23T05:08:44.819Z,18.61
2018-07-23T05:09:44.890Z,19.04
2018-07-23T05:10:45.077Z,19.44
2018-07-23T05:11:45.264Z,19.79
2018-07-23T05:12:45.472Z,20.08
2018-07-23T05:13:45.645Z,20.30
2018-07-23T05:14:45.834Z,20.48
2018-07-23T05:15:46.021Z,20.64
2018-07-23T05:16:46.192Z,20.75
2018-07-23T05:17:46.370Z,20.73
2018-07-23T05:18:46.569Z,20.49
2018-07-23T05:19:46.761Z,20.74
2018-07-23T05:20:46.944Z,21.00
2018-07-23T05:21:47.133Z,21.05
2018-07-23T05:22:47.323Z,21.11
2018-07-23T05:23:47.555Z,21.14
2018-07-23T05:24:48.210Z,21.29
2018-07-23T05:25:47.890Z,21.41
2018-07-23T05:26:48.071Z,21.43
2018-07-23T05:27:48.265Z,21.55
2018-07-23T05:28:48.460Z,21.65
2018-07-23T05:29:48.647Z,21.50
2018-07-23T05:30:48.844Z,21.41
2018-07-23T05:31:49.037Z,21.67
2018-07-23T05:32:49.206Z,21.62
2018-07-23T05:33:49.403Z,21.77
2018-07-23T05:34:49.592Z,21.82
2018-07-23T05:35:49.780Z,22.12
2018-07-23T05:36:49.966Z,22.25
2018-07-23T05:37:50.159Z,22.30
2018-07-23T05:38:50.346Z,22.43
2018-07-23T05:39:50.538Z,22.55
2018-07-23T05:40:50.730Z,22.68
2018-07-23T05:41:50.913Z,22.76
2018-07-23T05:42:51.128Z,22.73
2018-07-23T05:43:51.292Z,22.74
2018-07-23T05:44:51.487Z,23.04
2018-07-23T05:45:51.680Z,22.81
2018-07-23T05:46:51.859Z,22.56
2018-07-23T05:47:52.053Z,22.46
2018-07-23T05:48:52.243Z,22.13
2018-07-23T05:49:52.433Z,22.07
2018-07-23T05:50:52.630Z,21.90
2018-07-23T05:51:52.859Z,21.88
2018-07-23T05:52:52.994Z,21.65
2018-07-23T05:53:53.212Z,21.65
2018-07-23T05:54:53.401Z,21.40
2018-07-23T05:55:53.591Z,21.20
2018-07-23T05:56:53.791Z,20.89
2018-07-23T05:57:53.986Z,20.83
2018-07-23T05:58:54.203Z,20.70
2018-07-23T05:59:54.373Z,20.67
2018-07-23T06:00:54.571Z,20.80
2018-07-23T06:01:54.781Z,20.67
2018-07-23T06:02:54.978Z,20.74
2018-07-23T06:03:55.177Z,20.63
2018-07-23T06:04:55.367Z,20.92
2018-07-23T06:05:55.547Z,21.62
2018-07-23T06:06:55.859Z,22.07
2018-07-23T06:07:55.956Z,22.34
2018-07-23T06:08:56.146Z,22.27
2018-07-23T06:09:56.334Z,22.68
2018-07-23T06:10:56.545Z,22.85
2018-07-23T06:11:56.737Z,22.96
2018-07-23T06:12:56.923Z,23.22
2018-07-23T06:13:57.114Z,23.56
2018-07-23T06:14:57.312Z,23.66
2018-07-23T06:15:57.508Z,23.52
2018-07-23T06:16:57.703Z,23.54
2018-07-23T06:17:57.899Z,23.73
2018-07-23T06:18:58.097Z,23.86
2018-07-23T06:19:58.300Z,23.89
2018-07-23T06:20:58.491Z,24.01
2018-07-23T06:21:58.703Z,23.92
2018-07-23T06:22:58.877Z,23.96
2018-07-23T06:23:59.060Z,23.46
2018-07-23T06:24:59.248Z,23.71
2018-07-23T06:25:59.436Z,23.71
2018-07-23T06:26:59.671Z,23.81
2018-07-23T06:27:59.874Z,24.10
2018-07-23T06:29:00.064Z,24.26
2018-07-23T06:30:00.286Z,24.36
2018-07-23T06:31:00.473Z,24.26
2018-07-23T06:32:00.665Z,24.23
2018-07-23T06:33:00.874Z,24.41
2018-07-23T06:34:01.055Z,24.40
2018-07-23T06:35:01.248Z,24.37
2018-07-23T06:36:01.441Z,24.53
2018-07-23T06:37:01.634Z,24.65
2018-07-23T06:38:01.819Z,24.31
2018-07-23T06:39:02.027Z,24.40
2018-07-23T06:40:02.243Z,24.38
2018-07-23T06:41:02.450Z,24.70
2018-07-23T06:42:02.643Z,24.66
2018-07-23T06:43:02.824Z,24.90
2018-07-23T06:44:03.034Z,24.79
2018-07-23T06:45:03.246Z,24.70
2018-07-23T06:46:03.449Z,24.48
2018-07-23T06:47:03.643Z,24.62
2018-07-23T06:48:03.831Z,24.96
2018-07-23T06:49:04.044Z,25.21
2018-07-23T06:50:04.243Z,25.34
2018-07-23T06:51:04.444Z,25.19
2018-07-23T06:52:04.644Z,25.45
2018-07-23T06:53:04.841Z,25.59
2018-07-23T06:54:05.078Z,25.61
2018-07-23T06:55:05.241Z,25.53
2018-07-23T06:56:05.449Z,25.58
2018-07-23T06:57:05.621Z,25.77
2018-07-23T06:58:05.808Z,25.90
2018-07-23T07:00:48.730Z,25.89
2018-07-23T07:01:48.927Z,25.77
2018-07-23T07:02:49.123Z,25.74
2018-07-23T07:03:49.322Z,25.43
2018-07-23T07:04:49.521Z,25.21
2018-07-23T07:05:49.722Z,25.16
2018-07-23T07:06:49.920Z,24.89
2018-07-23T07:07:50.119Z,24.62
2018-07-23T07:08:50.314Z,24.45
2018-07-23T07:09:50.515Z,24.11
2018-07-23T07:10:50.753Z,24.04
2018-07-23T07:11:50.925Z,24.18
2018-07-23T07:12:51.112Z,24.37
2018-07-23T07:13:51.306Z,24.22
2018-07-23T07:14:51.498Z,24.28
2018-07-23T07:15:51.705Z,24.26
2018-07-23T07:16:51.903Z,24.25
2018-07-23T07:17:52.103Z,24.47
2018-07-23T07:18:52.303Z,24.56
2018-07-23T07:19:52.594Z,24.41
2018-07-23T07:20:52.707Z,24.29
2018-07-23T07:21:52.906Z,24.66
2018-07-23T07:22:53.103Z,25.11
2018-07-23T07:23:53.300Z,25.15
2018-07-23T07:24:53.497Z,25.08
2018-07-23T07:25:53.696Z,25.21
2018-07-23T07:26:53.893Z,25.09
2018-07-23T07:27:54.097Z,25.11
2018-07-23T07:28:54.299Z,25.00
2018-07-23T07:29:54.489Z,25.09
2018-07-23T07:30:54.689Z,25.01
2018-07-23T07:31:54.888Z,25.18
2018-07-23T07:32:55.087Z,25.28
2018-07-23T07:33:55.285Z,25.26
2018-07-23T07:34:55.485Z,25.19
2018-07-23T07:35:55.688Z,25.12
2018-07-23T07:36:55.880Z,25.04
2018-07-23T07:37:56.117Z,25.06
2018-07-23T07:38:56.278Z,25.03
2018-07-23T07:39:56.481Z,25.08
2018-07-23T07:40:56.675Z,25.08
2018-07-23T07:41:56.873Z,25.04
2018-07-23T07:42:57.064Z,25.06
2018-07-23T07:43:57.265Z,25.58
2018-07-23T07:44:57.466Z,25.71
2018-07-23T07:45:57.662Z,25.46
2018-07-23T07:46:57.862Z,25.88
2018-07-23T07:47:58.061Z,26.24
2018-07-23T07:48:58.261Z,26.56
2018-07-23T07:49:58.458Z,26.83
2018-07-23T07:50:58.662Z,26.73
2018-07-23T07:51:58.869Z,26.67
2018-07-23T07:52:59.065Z,26.34
2018-07-23T07:53:59.260Z,26.23
2018-07-23T07:54:59.453Z,26.15
2018-07-23T07:55:59.655Z,26.24
2018-07-23T07:56:59.860Z,26.26
2018-07-23T07:58:00.050Z,26.24
2018-07-23T07:59:00.260Z,26.27
2018-07-23T08:00:00.453Z,26.03
2018-07-23T08:01:00.657Z,26.12
2018-07-23T08:02:00.859Z,26.00
2018-07-23T08:03:01.055Z,25.74
2018-07-23T08:04:01.254Z,25.95
2018-07-23T08:05:01.453Z,26.20
2018-07-23T08:06:01.641Z,26.34
2018-07-23T08:07:01.868Z,26.48
2018-07-23T08:08:02.055Z,26.49
2018-07-23T08:09:02.253Z,26.61
2018-07-23T08:10:02.453Z,26.88
2018-07-23T08:11:02.672Z,27.07
2018-07-23T08:12:02.873Z,27.08
2018-07-23T08:13:03.062Z,27.05
2018-07-23T08:14:03.262Z,26.94
2018-07-23T08:15:03.464Z,26.64
2018-07-23T08:16:03.654Z,26.71
2018-07-23T08:17:03.851Z,26.75
2018-07-23T08:18:04.051Z,26.97
2018-07-23T08:19:04.246Z,27.12
2018-07-23T08:20:04.450Z,27.19
2018-07-23T08:21:04.645Z,27.00
2018-07-23T08:22:04.845Z,26.93
2018-07-23T08:23:05.033Z,27.16
2018-07-23T08:24:05.234Z,27.22
2018-07-23T08:25:05.445Z,27.30
2018-07-23T08:26:05.630Z,27.58
2018-07-23T08:27:05.827Z,28.00
2018-07-23T08:28:06.025Z,27.54
2018-07-23T08:29:06.224Z,27.78
2018-07-23T08:30:06.423Z,28.06
2018-07-23T08:31:06.619Z,28.20
2018-07-23T08:32:06.873Z,27.66
2018-07-23T08:33:07.017Z,27.58
2018-07-23T08:34:07.213Z,27.52
2018-07-23T08:35:07.411Z,27.25
2018-07-23T08:36:07.607Z,27.44
2018-07-23T08:37:07.834Z,27.63
2018-07-23T08:38:08.006Z,27.76
2018-07-23T08:39:08.204Z,27.61
2018-07-23T08:40:08.398Z,27.60
2018-07-23T08:41:08.606Z,27.52
2018-07-23T08:42:08.804Z,27.58
2018-07-23T08:43:09.060Z,27.70
2018-07-23T08:44:09.197Z,27.83
2018-07-23T08:45:09.405Z,27.76
2018-07-23T08:46:09.602Z,27.93
2018-07-23T08:47:09.801Z,27.98
2018-07-23T08:48:09.998Z,28.27
2018-07-23T08:49:10.194Z,28.32
2018-07-23T08:50:10.397Z,28.43
2018-07-23T08:51:10.640Z,28.53
2018-07-23T08:52:10.794Z,28.77
2018-07-23T08:53:10.991Z,28.77
2018-07-23T08:54:11.190Z,28.32
2018-07-23T08:55:11.383Z,28.35
2018-07-23T08:56:11.611Z,28.03
2018-07-23T08:57:11.776Z,28.00
2018-07-23T08:58:11.973Z,27.91
2018-07-23T08:59:12.209Z,28.17
2018-07-23T09:00:12.392Z,28.10
2018-07-23T09:01:12.591Z,28.05
2018-07-23T09:02:12.812Z,28.05
2018-07-23T09:03:12.988Z,28.25
2018-07-23T09:04:13.178Z,28.37
2018-07-23T09:05:13.374Z,28.50
2018-07-23T09:06:13.573Z,28.35
2018-07-23T09:07:13.762Z,28.19
2018-07-23T09:08:13.972Z,27.91
2018-07-23T09:09:14.162Z,27.88
2018-07-23T09:10:14.359Z,27.69
2018-07-23T09:11:14.559Z,27.34
2018-07-23T09:12:14.755Z,27.26
2018-07-23T09:13:14.948Z,27.16
2018-07-23T09:14:15.143Z,26.83
2018-07-23T09:15:15.343Z,26.83
2018-07-23T09:16:15.543Z,26.68
2018-07-23T09:17:15.747Z,26.82
2018-07-23T09:18:15.933Z,26.85
2018-07-23T09:19:16.123Z,26.71
2018-07-23T09:20:16.324Z,26.89
2018-07-23T09:21:16.532Z,27.13
2018-07-23T09:22:16.728Z,27.49
2018-07-23T09:23:16.926Z,27.80
2018-07-23T09:24:17.123Z,27.98
2018-07-23T09:25:17.308Z,28.01
2018-07-23T09:26:17.500Z,27.69
2018-07-23T09:27:17.693Z,27.45
2018-07-23T09:28:17.896Z,27.17
2018-07-23T09:29:18.085Z,27.22
2018-07-23T09:30:18.318Z,27.42
2018-07-23T09:31:18.481Z,27.54
2018-07-23T09:32:18.675Z,27.68
2018-07-23T09:33:18.882Z,27.87
2018-07-23T09:34:19.076Z,28.05
2018-07-23T09:35:19.277Z,27.91
2018-07-23T09:36:19.474Z,27.82
2018-07-23T09:37:19.670Z,27.95
2018-07-23T09:38:19.866Z,28.27
2018-07-23T09:39:20.061Z,28.53
2018-07-23T09:40:20.254Z,28.47
2018-07-23T09:41:20.451Z,28.64
2018-07-23T09:42:20.638Z,28.46
2018-07-23T09:43:20.831Z,28.37
2018-07-23T09:44:21.025Z,28.30
2018-07-23T09:45:21.220Z,28.15
2018-07-23T09:46:21.416Z,28.34
2018-07-23T09:47:21.612Z,28.15
2018-07-23T09:48:21.808Z,28.03
2018-07-23T09:49:22.004Z,28.16
2018-07-23T09:50:22.181Z,28.13
2018-07-23T09:51:22.417Z,28.32
2018-07-23T09:52:22.602Z,28.59
2018-07-23T09:53:22.803Z,28.72
2018-07-23T09:54:23.005Z,28.79
2018-07-23T09:55:23.168Z,28.43
2018-07-23T09:56:23.387Z,28.69
2018-07-23T09:57:23.581Z,28.77
2018-07-23T09:58:23.767Z,28.80
2018-07-23T09:59:23.979Z,28.79
2018-07-23T10:00:24.147Z,28.87
2018-07-23T10:01:24.358Z,28.75
2018-07-23T10:02:24.560Z,28.59
2018-07-23T10:03:24.767Z,28.44
2018-07-23T10:04:24.931Z,28.06
2018-07-23T10:05:25.135Z,27.69
2018-07-23T10:06:25.327Z,27.31
2018-07-23T10:07:25.512Z,27.32
2018-07-23T10:08:25.692Z,27.32
2018-07-23T10:09:25.897Z,27.22
2018-07-23T10:10:26.092Z,27.16
2018-07-23T10:11:26.287Z,27.16
2018-07-23T10:12:26.497Z,27.05
2018-07-23T10:13:26.731Z,26.90
2018-07-23T10:14:26.927Z,26.80
2018-07-23T10:15:27.108Z,27.07
2018-07-23T10:18:10.015Z,27.01
2018-07-23T10:19:10.215Z,27.12
2018-07-23T10:20:10.415Z,27.23
2018-07-23T10:21:10.612Z,27.35
2018-07-23T10:22:10.820Z,27.49
2018-07-23T10:23:10.994Z,27.70
2018-07-23T10:24:11.193Z,27.85
2018-07-23T10:25:11.391Z,28.07
2018-07-23T10:26:11.584Z,28.24
2018-07-23T10:27:11.782Z,28.46
2018-07-23T10:28:11.971Z,28.47
2018-07-23T10:29:12.168Z,28.42
2018-07-23T10:30:12.366Z,28.30
2018-07-23T10:31:12.553Z,28.47
2018-07-23T10:32:12.747Z,28.64
2018-07-23T10:33:12.943Z,28.72
2018-07-23T10:34:13.118Z,28.62
2018-07-23T10:35:13.375Z,28.44
2018-07-23T10:36:13.500Z,28.38
2018-07-23T10:37:13.697Z,28.46
2018-07-23T10:38:13.891Z,28.74
2018-07-23T10:39:14.091Z,28.98
2018-07-23T10:40:14.284Z,29.31
2018-07-23T10:41:14.492Z,29.66
2018-07-23T10:42:14.679Z,29.68
2018-07-23T10:43:14.869Z,29.99
2018-07-23T10:44:15.071Z,30.21
2018-07-23T10:45:15.263Z,30.37
2018-07-23T10:46:15.456Z,30.45
2018-07-23T10:47:15.645Z,30.40
2018-07-23T10:48:15.852Z,30.20
2018-07-23T10:49:16.034Z,30.21
2018-07-23T10:50:16.220Z,30.11
2018-07-23T10:51:16.418Z,30.20
2018-07-23T10:52:16.630Z,30.22
2018-07-23T10:53:16.818Z,30.49
2018-07-23T10:54:17.014Z,30.33
2018-07-23T10:55:17.222Z,30.10
2018-07-23T10:56:17.427Z,29.86
2018-07-23T10:57:17.704Z,29.43
2018-07-23T10:58:17.908Z,29.21
2018-07-23T10:59:18.107Z,29.28
2018-07-23T11:00:18.297Z,29.43
2018-07-23T11:01:18.509Z,29.46
2018-07-23T11:02:18.692Z,29.50
2018-07-23T11:03:18.890Z,29.61
2018-07-23T11:04:19.131Z,29.37
2018-07-23T11:05:19.279Z,29.12
2018-07-23T11:06:19.476Z,28.98
2018-07-23T11:07:19.709Z,29.03
2018-07-23T11:08:19.851Z,29.18
2018-07-23T11:09:20.039Z,29.19
2018-07-23T11:10:20.237Z,29.18
2018-07-23T11:11:20.426Z,29.03
2018-07-23T11:12:20.622Z,29.13
2018-07-23T11:13:20.803Z,29.12
2018-07-23T11:14:21.000Z,29.02
2018-07-23T11:15:21.195Z,29.21
2018-07-23T11:16:21.390Z,29.09
2018-07-23T11:17:21.585Z,29.24
2018-07-23T11:18:21.768Z,29.36
2018-07-23T11:19:22.073Z,29.47
2018-07-23T11:20:22.167Z,29.52
2018-07-23T11:21:22.380Z,29.65
2018-07-23T11:22:22.531Z,29.62
2018-07-23T11:23:22.731Z,29.25
2018-07-23T11:24:22.924Z,28.91
2018-07-23T11:25:38.979Z,28.77
2018-07-23T11:26:23.331Z,28.61
2018-07-23T11:27:23.508Z,28.68
2018-07-23T11:28:23.744Z,28.93
2018-07-23T11:29:23.939Z,29.12
2018-07-23T11:30:24.141Z,29.17
2018-07-23T11:31:24.344Z,29.04
2018-07-23T11:32:24.560Z,29.02
2018-07-23T11:33:24.783Z,28.91
2018-07-23T11:34:24.970Z,28.75
2018-07-23T11:35:25.166Z,28.80
2018-07-23T11:36:25.397Z,28.90
2018-07-23T11:37:25.549Z,28.89
2018-07-23T11:38:25.759Z,28.89
2018-07-23T11:39:25.992Z,28.98
2018-07-23T11:40:26.156Z,29.10
2018-07-23T11:41:26.357Z,29.12
2018-07-23T11:42:26.535Z,29.24
2018-07-23T11:43:26.726Z,29.37
2018-07-23T11:44:26.924Z,29.34
2018-07-23T11:45:27.129Z,29.39
2018-07-23T11:46:27.341Z,29.37
2018-07-23T11:47:27.541Z,29.29
2018-07-23T11:48:27.734Z,29.40
2018-07-23T11:49:27.948Z,29.46
2018-07-23T11:50:28.103Z,29.40
2018-07-23T11:51:28.309Z,29.18
2018-07-23T11:52:28.490Z,29.25
2018-07-23T11:53:28.753Z,29.33
2018-07-23T11:54:28.877Z,29.18
2018-07-23T11:55:29.064Z,29.33
2018-07-23T11:56:29.269Z,29.33
2018-07-23T11:57:29.434Z,29.31
2018-07-23T11:58:29.637Z,29.18
2018-07-23T11:59:29.824Z,29.19
2018-07-23T12:00:30.011Z,29.07
2018-07-23T12:01:30.222Z,29.09
2018-07-23T12:02:30.411Z,29.00
2018-07-23T12:03:30.668Z,28.84
2018-07-23T12:04:30.888Z,28.71
2018-07-23T12:05:31.048Z,28.77
2018-07-23T12:06:31.239Z,28.89
2018-07-23T12:07:31.421Z,28.98
2018-07-23T12:08:31.616Z,28.98
2018-07-23T12:09:31.808Z,28.91
2018-07-23T12:10:32.000Z,28.77
2018-07-23T12:11:32.199Z,28.56
2018-07-23T12:12:32.391Z,28.40
2018-07-23T12:13:32.605Z,28.37
2018-07-23T12:14:32.836Z,28.28
2018-07-23T12:15:33.053Z,28.32
2018-07-23T12:16:33.251Z,28.20
2018-07-23T12:17:33.458Z,28.13
2018-07-23T12:18:33.639Z,28.05
2018-07-23T12:19:33.833Z,28.15
2018-07-23T12:20:34.026Z,28.03
2018-07-23T12:21:34.225Z,28.07
2018-07-23T12:22:34.433Z,28.16
2018-07-23T12:23:34.653Z,28.01
2018-07-23T12:24:34.841Z,28.13
2018-07-23T12:25:35.041Z,28.03
2018-07-23T12:26:35.228Z,28.01
2018-07-23T12:27:35.440Z,28.12
2018-07-23T12:28:35.639Z,28.13
2018-07-23T12:29:35.834Z,28.17
2018-07-23T12:30:36.018Z,28.44
2018-07-23T12:31:36.309Z,28.68
2018-07-23T12:32:36.464Z,28.84
2018-07-23T12:33:36.671Z,28.93
2018-07-23T12:34:36.876Z,28.91
2018-07-23T12:35:37.072Z,29.06
2018-07-23T12:36:37.262Z,29.00
2018-07-23T12:37:37.441Z,29.10
2018-07-23T12:38:37.644Z,29.29
2018-07-23T12:39:37.871Z,29.52
2018-07-23T12:40:38.016Z,29.76
2018-07-23T12:41:38.222Z,29.89
2018-07-23T12:42:38.449Z,29.77
2018-07-23T12:43:38.636Z,29.83
2018-07-23T12:44:38.821Z,29.91
2018-07-23T12:45:39.012Z,29.77
2018-07-23T12:46:39.205Z,29.58
2018-07-23T12:47:39.396Z,29.52
2018-07-23T12:48:39.589Z,29.76
2018-07-23T12:49:39.778Z,30.00
2018-07-23T12:52:22.687Z,30.32
2018-07-23T12:53:22.897Z,30.35
2018-07-23T12:54:23.093Z,30.20
2018-07-23T12:55:23.294Z,30.24
2018-07-23T12:56:23.491Z,30.18
2018-07-23T12:57:23.683Z,30.11
2018-07-23T12:58:23.879Z,30.21
2018-07-23T12:59:24.075Z,30.30
2018-07-23T13:00:24.272Z,30.53